sensor_id;sensor_type;location;lat;lon;timestamp;P1;durP1;ratioP1;P2;durP2;ratioP2
80411;SDS011;69749;42.684;23.360;2024-03-23T00:53:59;21.00;;;11.45;;
80411;SDS011;69749;42.684;23.360;2024-03-23T00:56:25;22.08;;;11.50;;
80411;SDS011;69749;42.684;23.360;2024-03-23T00:58:50;21.08;;;11.55;;
80411;SDS011;69749;42.684;23.360;2024-03-23T01:01:15;20.83;;;11.82;;
80411;SDS011;69749;42.684;23.360;2024-03-23T01:03:41;21.17;;;12.38;;
80411;SDS011;69749;42.684;23.360;2024-03-23T01:06:06;26.20;;;13.43;;
80411;SDS011;69749;42.684;23.360;2024-03-23T01:08:32;21.00;;;12.25;;
80411;SDS011;69749;42.684;23.360;2024-03-23T01:10:58;26.17;;;13.40;;
80411;SDS011;69749;42.684;23.360;2024-03-23T01:13:25;21.23;;;12.95;;
80411;SDS011;69749;42.684;23.360;2024-03-23T01:15:51;23.65;;;13.15;;
80411;SDS011;69749;42.684;23.360;2024-03-23T01:18:17;22.77;;;12.20;;
80411;SDS011;69749;42.684;23.360;2024-03-23T01:20:43;21.48;;;12.23;;
80411;SDS011;69749;42.684;23.360;2024-03-23T01:23:09;20.95;;;11.55;;
80411;SDS011;69749;42.684;23.360;2024-03-23T01:25:34;26.02;;;13.02;;
80411;SDS011;69749;42.684;23.360;2024-03-23T01:28:00;27.23;;;14.35;;
80411;SDS011;69749;42.684;23.360;2024-03-23T01:30:25;25.67;;;13.00;;
80411;SDS011;69749;42.684;23.360;2024-03-23T01:32:50;26.13;;;13.38;;
80411;SDS011;69749;42.684;23.360;2024-03-23T01:35:16;30.55;;;14.27;;
80411;SDS011;69749;42.684;23.360;2024-03-23T01:37:41;25.92;;;13.98;;
80411;SDS011;69749;42.684;23.360;2024-03-23T01:40:07;24.40;;;12.88;;
80411;SDS011;69749;42.684;23.360;2024-03-23T01:42:33;22.20;;;12.52;;
80411;SDS011;69749;42.684;23.360;2024-03-23T01:44:58;23.13;;;13.27;;
80411;SDS011;69749;42.684;23.360;2024-03-23T01:47:24;22.98;;;13.85;;
80411;SDS011;69749;42.684;23.360;2024-03-23T01:49:49;26.13;;;14.18;;
80411;SDS011;69749;42.684;23.360;2024-03-23T01:52:16;20.85;;;12.48;;
80411;SDS011;69749;42.684;23.360;2024-03-23T01:54:42;24.30;;;14.73;;
80411;SDS011;69749;42.684;23.360;2024-03-23T01:57:08;23.92;;;13.35;;
80411;SDS011;69749;42.684;23.360;2024-03-23T01:59:35;23.58;;;13.25;;
80411;SDS011;69749;42.684;23.360;2024-03-23T02:02:00;26.40;;;13.27;;
80411;SDS011;69749;42.684;23.360;2024-03-23T02:04:26;25.83;;;12.82;;
80411;SDS011;69749;42.684;23.360;2024-03-23T02:06:51;25.45;;;12.38;;
80411;SDS011;69749;42.684;23.360;2024-03-23T02:09:17;19.38;;;11.25;;
80411;SDS011;69749;42.684;23.360;2024-03-23T02:11:43;26.10;;;13.75;;
80411;SDS011;69749;42.684;23.360;2024-03-23T02:14:08;24.05;;;13.48;;
80411;SDS011;69749;42.684;23.360;2024-03-23T02:16:34;32.38;;;17.88;;
80411;SDS011;69749;42.684;23.360;2024-03-23T02:18:59;29.42;;;15.30;;
80411;SDS011;69749;42.684;23.360;2024-03-23T02:21:25;43.35;;;21.92;;
80411;SDS011;69749;42.684;23.360;2024-03-23T02:23:52;45.42;;;21.00;;
80411;SDS011;69749;42.684;23.360;2024-03-23T02:26:18;23.48;;;13.23;;
80411;SDS011;69749;42.684;23.360;2024-03-23T02:28:43;20.63;;;12.10;;
80411;SDS011;69749;42.684;23.360;2024-03-23T02:31:09;21.73;;;12.88;;
80411;SDS011;69749;42.684;23.360;2024-03-23T02:33:34;22.83;;;12.57;;
80411;SDS011;69749;42.684;23.360;2024-03-23T02:36:03;21.95;;;12.23;;
80411;SDS011;69749;42.684;23.360;2024-03-23T02:38:29;21.27;;;12.23;;
80411;SDS011;69749;42.684;23.360;2024-03-23T02:40:54;22.10;;;11.65;;
80411;SDS011;69749;42.684;23.360;2024-03-23T02:43:20;22.58;;;12.00;;
80411;SDS011;69749;42.684;23.360;2024-03-23T02:45:45;21.20;;;11.70;;
80411;SDS011;69749;42.684;23.360;2024-03-23T02:48:11;25.35;;;14.00;;
80411;SDS011;69749;42.684;23.360;2024-03-23T02:50:36;21.60;;;11.85;;
80411;SDS011;69749;42.684;23.360;2024-03-23T02:53:02;25.00;;;13.35;;
80411;SDS011;69749;42.684;23.360;2024-03-23T02:55:27;27.00;;;14.50;;
80411;SDS011;69749;42.684;23.360;2024-03-23T02:57:53;25.48;;;13.50;;
80411;SDS011;69749;42.684;23.360;2024-03-23T03:00:18;26.42;;;14.48;;
80411;SDS011;69749;42.684;23.360;2024-03-23T03:02:44;26.80;;;13.77;;
80411;SDS011;69749;42.684;23.360;2024-03-23T03:05:09;24.98;;;13.43;;
80411;SDS011;69749;42.684;23.360;2024-03-23T03:07:36;26.23;;;12.63;;
80411;SDS011;69749;42.684;23.360;2024-03-23T03:10:04;29.95;;;12.48;;
80411;SDS011;69749;42.684;23.360;2024-03-23T03:12:31;24.27;;;12.52;;
80411;SDS011;69749;42.684;23.360;2024-03-23T03:14:57;23.60;;;12.57;;
80411;SDS011;69749;42.684;23.360;2024-03-23T03:17:22;26.48;;;13.00;;
80411;SDS011;69749;42.684;23.360;2024-03-23T03:19:48;20.35;;;12.55;;
80411;SDS011;69749;42.684;23.360;2024-03-23T03:22:14;22.10;;;12.63;;
80411;SDS011;69749;42.684;23.360;2024-03-23T03:24:39;22.02;;;11.70;;
80411;SDS011;69749;42.684;23.360;2024-03-23T03:27:05;20.38;;;11.02;;
80411;SDS011;69749;42.684;23.360;2024-03-23T03:29:31;19.33;;;12.15;;
80411;SDS011;69749;42.684;23.360;2024-03-23T03:32:00;21.15;;;10.98;;
80411;SDS011;69749;42.684;23.360;2024-03-23T03:34:27;18.75;;;10.10;;
80411;SDS011;69749;42.684;23.360;2024-03-23T03:36:52;17.20;;;10.00;;
80411;SDS011;69749;42.684;23.360;2024-03-23T03:39:18;18.90;;;10.55;;
80411;SDS011;69749;42.684;23.360;2024-03-23T03:41:43;19.70;;;11.30;;
80411;SDS011;69749;42.684;23.360;2024-03-23T03:44:09;17.75;;;10.40;;
80411;SDS011;69749;42.684;23.360;2024-03-23T03:46:34;17.60;;;11.75;;
80411;SDS011;69749;42.684;23.360;2024-03-23T03:48:59;19.23;;;12.15;;
80411;SDS011;69749;42.684;23.360;2024-03-23T03:51:25;25.67;;;13.75;;
80411;SDS011;69749;42.684;23.360;2024-03-23T03:53:50;22.63;;;12.23;;
80411;SDS011;69749;42.684;23.360;2024-03-23T03:56:16;20.10;;;12.30;;
80411;SDS011;69749;42.684;23.360;2024-03-23T03:58:41;24.83;;;13.50;;
80411;SDS011;69749;42.684;23.360;2024-03-23T04:01:07;22.65;;;12.73;;
80411;SDS011;69749;42.684;23.360;2024-03-23T04:03:33;21.80;;;12.77;;
80411;SDS011;69749;42.684;23.360;2024-03-23T04:05:59;23.08;;;13.50;;
80411;SDS011;69749;42.684;23.360;2024-03-23T04:08:24;22.27;;;12.27;;
80411;SDS011;69749;42.684;23.360;2024-03-23T04:10:50;22.90;;;12.23;;
80411;SDS011;69749;42.684;23.360;2024-03-23T04:13:15;21.77;;;12.88;;
80411;SDS011;69749;42.684;23.360;2024-03-23T04:15:41;20.08;;;12.57;;
80411;SDS011;69749;42.684;23.360;2024-03-23T04:18:07;21.88;;;12.35;;
80411;SDS011;69749;42.684;23.360;2024-03-23T04:20:33;22.60;;;11.88;;
80411;SDS011;69749;42.684;23.360;2024-03-23T04:22:59;20.60;;;11.48;;
80411;SDS011;69749;42.684;23.360;2024-03-23T04:25:24;17.08;;;9.82;;
80411;SDS011;69749;42.684;23.360;2024-03-23T04:27:50;16.90;;;10.57;;
80411;SDS011;69749;42.684;23.360;2024-03-23T04:30:16;23.10;;;11.98;;
80411;SDS011;69749;42.684;23.360;2024-03-23T04:32:42;19.60;;;11.15;;
80411;SDS011;69749;42.684;23.360;2024-03-23T04:35:08;19.15;;;10.90;;
80411;SDS011;69749;42.684;23.360;2024-03-23T04:37:38;21.70;;;11.20;;
80411;SDS011;69749;42.684;23.360;2024-03-23T04:40:06;20.98;;;10.00;;
80411;SDS011;69749;42.684;23.360;2024-03-23T04:42:32;17.27;;;10.20;;
80411;SDS011;69749;42.684;23.360;2024-03-23T04:44:58;17.17;;;10.10;;
80411;SDS011;69749;42.684;23.360;2024-03-23T04:47:24;15.00;;;9.60;;
80411;SDS011;69749;42.684;23.360;2024-03-23T04:49:49;16.98;;;10.38;;
80411;SDS011;69749;42.684;23.360;2024-03-23T04:52:18;15.73;;;8.82;;
80411;SDS011;69749;42.684;23.360;2024-03-23T04:54:44;17.42;;;9.80;;
80411;SDS011;69749;42.684;23.360;2024-03-23T04:57:10;18.85;;;9.40;;
80411;SDS011;69749;42.684;23.360;2024-03-23T04:59:36;17.27;;;8.55;;
80411;SDS011;69749;42.684;23.360;2024-03-23T05:02:02;14.50;;;9.70;;
80411;SDS011;69749;42.684;23.360;2024-03-23T05:04:28;19.08;;;8.85;;
80411;SDS011;69749;42.684;23.360;2024-03-23T05:06:53;14.10;;;8.68;;
80411;SDS011;69749;42.684;23.360;2024-03-23T05:09:19;13.52;;;8.65;;
80411;SDS011;69749;42.684;23.360;2024-03-23T05:11:45;16.10;;;9.38;;
80411;SDS011;69749;42.684;23.360;2024-03-23T05:14:11;18.55;;;10.07;;
80411;SDS011;69749;42.684;23.360;2024-03-23T05:19:04;17.00;;;8.93;;
80411;SDS011;69749;42.684;23.360;2024-03-23T05:21:29;19.40;;;9.10;;
80411;SDS011;69749;42.684;23.360;2024-03-23T05:23:55;15.88;;;9.13;;
80411;SDS011;69749;42.684;23.360;2024-03-23T05:26:21;13.35;;;8.50;;
80411;SDS011;69749;42.684;23.360;2024-03-23T05:28:47;19.40;;;9.45;;
80411;SDS011;69749;42.684;23.360;2024-03-23T05:31:13;14.52;;;9.60;;
80411;SDS011;69749;42.684;23.360;2024-03-23T05:33:50;14.57;;;8.73;;
80411;SDS011;69749;42.684;23.360;2024-03-23T05:36:16;13.88;;;8.63;;
80411;SDS011;69749;42.684;23.360;2024-03-23T05:38:42;11.20;;;6.90;;
80411;SDS011;69749;42.684;23.360;2024-03-23T05:41:07;12.93;;;8.70;;
80411;SDS011;69749;42.684;23.360;2024-03-23T05:43:33;18.92;;;10.77;;
80411;SDS011;69749;42.684;23.360;2024-03-23T05:45:59;25.92;;;13.48;;
80411;SDS011;69749;42.684;23.360;2024-03-23T05:48:26;21.35;;;13.73;;
80411;SDS011;69749;42.684;23.360;2024-03-23T05:50:52;24.08;;;13.38;;
80411;SDS011;69749;42.684;23.360;2024-03-23T05:53:18;21.30;;;12.65;;
80411;SDS011;69749;42.684;23.360;2024-03-23T05:55:45;24.45;;;11.57;;
80411;SDS011;69749;42.684;23.360;2024-03-23T05:58:12;17.77;;;10.68;;
80411;SDS011;69749;42.684;23.360;2024-03-23T06:00:39;18.20;;;9.50;;
80411;SDS011;69749;42.684;23.360;2024-03-23T06:03:05;20.85;;;10.05;;
80411;SDS011;69749;42.684;23.360;2024-03-23T06:05:31;17.08;;;9.63;;
80411;SDS011;69749;42.684;23.360;2024-03-23T06:07:56;18.25;;;9.60;;
80411;SDS011;69749;42.684;23.360;2024-03-23T06:10:22;16.52;;;8.80;;
80411;SDS011;69749;42.684;23.360;2024-03-23T06:12:48;15.32;;;9.27;;
80411;SDS011;69749;42.684;23.360;2024-03-23T06:15:15;16.45;;;8.65;;
80411;SDS011;69749;42.684;23.360;2024-03-23T06:17:41;13.15;;;8.50;;
80411;SDS011;69749;42.684;23.360;2024-03-23T06:20:06;15.88;;;8.60;;
80411;SDS011;69749;42.684;23.360;2024-03-23T06:22:32;20.08;;;8.73;;
80411;SDS011;69749;42.684;23.360;2024-03-23T06:24:58;15.15;;;8.13;;
80411;SDS011;69749;42.684;23.360;2024-03-23T06:27:24;13.98;;;8.70;;
80411;SDS011;69749;42.684;23.360;2024-03-23T06:29:50;19.40;;;11.73;;
80411;SDS011;69749;42.684;23.360;2024-03-23T06:32:15;20.52;;;10.98;;
80411;SDS011;69749;42.684;23.360;2024-03-23T06:34:41;20.45;;;11.25;;
80411;SDS011;69749;42.684;23.360;2024-03-23T06:37:07;20.90;;;11.00;;
80411;SDS011;69749;42.684;23.360;2024-03-23T06:39:34;14.90;;;10.18;;
80411;SDS011;69749;42.684;23.360;2024-03-23T06:42:01;16.90;;;11.10;;
80411;SDS011;69749;42.684;23.360;2024-03-23T06:44:27;17.23;;;11.43;;
80411;SDS011;69749;42.684;23.360;2024-03-23T06:46:53;20.67;;;12.73;;
80411;SDS011;69749;42.684;23.360;2024-03-23T06:49:18;20.75;;;13.32;;
80411;SDS011;69749;42.684;23.360;2024-03-23T06:51:44;23.63;;;14.52;;
80411;SDS011;69749;42.684;23.360;2024-03-23T06:54:11;24.75;;;14.70;;
80411;SDS011;69749;42.684;23.360;2024-03-23T06:56:36;27.83;;;15.80;;
80411;SDS011;69749;42.684;23.360;2024-03-23T06:59:02;25.52;;;14.63;;
80411;SDS011;69749;42.684;23.360;2024-03-23T07:01:27;20.17;;;12.60;;
80411;SDS011;69749;42.684;23.360;2024-03-23T07:03:56;23.73;;;13.90;;
80411;SDS011;69749;42.684;23.360;2024-03-23T07:06:21;19.00;;;11.45;;
80411;SDS011;69749;42.684;23.360;2024-03-23T07:08:47;18.95;;;12.05;;
80411;SDS011;69749;42.684;23.360;2024-03-23T07:11:18;20.50;;;11.88;;
80411;SDS011;69749;42.684;23.360;2024-03-23T07:13:45;17.70;;;12.18;;
80411;SDS011;69749;42.684;23.360;2024-03-23T07:16:10;16.23;;;11.40;;
80411;SDS011;69749;42.684;23.360;2024-03-23T07:18:36;20.17;;;12.88;;
80411;SDS011;69749;42.684;23.360;2024-03-23T07:21:01;18.70;;;11.50;;
80411;SDS011;69749;42.684;23.360;2024-03-23T07:23:27;17.80;;;11.38;;
80411;SDS011;69749;42.684;23.360;2024-03-23T07:25:58;16.70;;;11.43;;
80411;SDS011;69749;42.684;23.360;2024-03-23T07:28:25;23.60;;;21.25;;
80411;SDS011;69749;42.684;23.360;2024-03-23T07:33:43;18.58;;;11.65;;
80411;SDS011;69749;42.684;23.360;2024-03-23T07:36:10;15.43;;;11.80;;
80411;SDS011;69749;42.684;23.360;2024-03-23T07:38:35;19.48;;;11.50;;
80411;SDS011;69749;42.684;23.360;2024-03-23T07:43:30;17.45;;;12.20;;
80411;SDS011;69749;42.684;23.360;2024-03-23T07:45:56;15.48;;;12.05;;
80411;SDS011;69749;42.684;23.360;2024-03-23T07:48:21;18.42;;;14.27;;
80411;SDS011;69749;42.684;23.360;2024-03-23T07:51:02;19.23;;;16.13;;
80411;SDS011;69749;42.684;23.360;2024-03-23T07:53:30;19.45;;;14.70;;
80411;SDS011;69749;42.684;23.360;2024-03-23T07:56:02;21.35;;;13.95;;
80411;SDS011;69749;42.684;23.360;2024-03-23T07:58:29;18.85;;;12.98;;
80411;SDS011;69749;42.684;23.360;2024-03-23T08:00:55;16.75;;;12.50;;
80411;SDS011;69749;42.684;23.360;2024-03-23T08:03:28;19.25;;;11.80;;
80411;SDS011;69749;42.684;23.360;2024-03-23T08:05:53;16.20;;;12.98;;
80411;SDS011;69749;42.684;23.360;2024-03-23T08:08:19;15.15;;;12.23;;
80411;SDS011;69749;42.684;23.360;2024-03-23T08:10:51;18.23;;;14.60;;
80411;SDS011;69749;42.684;23.360;2024-03-23T08:13:17;17.63;;;11.65;;
80411;SDS011;69749;42.684;23.360;2024-03-23T08:15:43;17.08;;;11.68;;
80411;SDS011;69749;42.684;23.360;2024-03-23T08:18:09;19.83;;;12.02;;
80411;SDS011;69749;42.684;23.360;2024-03-23T08:21:00;21.85;;;13.45;;
80411;SDS011;69749;42.684;23.360;2024-03-23T08:23:33;17.52;;;12.15;;
80411;SDS011;69749;42.684;23.360;2024-03-23T08:26:09;13.65;;;10.77;;
80411;SDS011;69749;42.684;23.360;2024-03-23T08:28:36;15.80;;;11.55;;
80411;SDS011;69749;42.684;23.360;2024-03-23T08:31:09;19.10;;;12.38;;
80411;SDS011;69749;42.684;23.360;2024-03-23T08:33:35;15.80;;;11.10;;
80411;SDS011;69749;42.684;23.360;2024-03-23T08:40:57;14.85;;;10.43;;
80411;SDS011;69749;42.684;23.360;2024-03-23T08:43:23;14.75;;;10.38;;
80411;SDS011;69749;42.684;23.360;2024-03-23T08:45:49;18.33;;;11.68;;
80411;SDS011;69749;42.684;23.360;2024-03-23T08:48:15;23.38;;;11.75;;
80411;SDS011;69749;42.684;23.360;2024-03-23T08:50:40;13.20;;;10.48;;
80411;SDS011;69749;42.684;23.360;2024-03-23T08:53:06;13.43;;;10.43;;
80411;SDS011;69749;42.684;23.360;2024-03-23T08:55:31;16.55;;;10.77;;
80411;SDS011;69749;42.684;23.360;2024-03-23T08:57:57;14.73;;;10.63;;
80411;SDS011;69749;42.684;23.360;2024-03-23T09:00:22;16.50;;;10.75;;
80411;SDS011;69749;42.684;23.360;2024-03-23T09:02:48;17.60;;;10.90;;
80411;SDS011;69749;42.684;23.360;2024-03-23T09:05:13;15.13;;;10.52;;
80411;SDS011;69749;42.684;23.360;2024-03-23T09:07:39;15.93;;;10.52;;
80411;SDS011;69749;42.684;23.360;2024-03-23T09:10:04;15.77;;;10.27;;
80411;SDS011;69749;42.684;23.360;2024-03-23T09:12:30;20.10;;;12.80;;
80411;SDS011;69749;42.684;23.360;2024-03-23T09:14:56;13.73;;;9.32;;
80411;SDS011;69749;42.684;23.360;2024-03-23T09:17:21;17.10;;;10.32;;
80411;SDS011;69749;42.684;23.360;2024-03-23T09:19:47;15.57;;;10.15;;
80411;SDS011;69749;42.684;23.360;2024-03-23T09:22:12;23.73;;;11.50;;
80411;SDS011;69749;42.684;23.360;2024-03-23T09:24:38;17.95;;;9.57;;
80411;SDS011;69749;42.684;23.360;2024-03-23T09:27:04;17.17;;;11.38;;
80411;SDS011;69749;42.684;23.360;2024-03-23T09:29:30;16.05;;;10.40;;
80411;SDS011;69749;42.684;23.360;2024-03-23T09:31:55;19.55;;;10.00;;
80411;SDS011;69749;42.684;23.360;2024-03-23T09:34:21;25.40;;;11.07;;
80411;SDS011;69749;42.684;23.360;2024-03-23T09:36:47;13.20;;;9.80;;
80411;SDS011;69749;42.684;23.360;2024-03-23T09:39:15;27.83;;;10.15;;
80411;SDS011;69749;42.684;23.360;2024-03-23T09:41:40;14.13;;;8.68;;
80411;SDS011;69749;42.684;23.360;2024-03-23T09:44:06;13.10;;;8.98;;
80411;SDS011;69749;42.684;23.360;2024-03-23T09:46:32;17.17;;;9.35;;
80411;SDS011;69749;42.684;23.360;2024-03-23T09:49:00;19.30;;;9.95;;
80411;SDS011;69749;42.684;23.360;2024-03-23T09:51:26;13.07;;;8.85;;
80411;SDS011;69749;42.684;23.360;2024-03-23T09:53:52;13.18;;;8.30;;
80411;SDS011;69749;42.684;23.360;2024-03-23T09:56:18;13.80;;;8.88;;
80411;SDS011;69749;42.684;23.360;2024-03-23T09:58:43;14.50;;;9.15;;
80411;SDS011;69749;42.684;23.360;2024-03-23T10:01:09;12.88;;;8.73;;
80411;SDS011;69749;42.684;23.360;2024-03-23T10:03:42;12.30;;;8.43;;
80411;SDS011;69749;42.684;23.360;2024-03-23T10:06:13;21.02;;;9.77;;
80411;SDS011;69749;42.684;23.360;2024-03-23T10:08:38;35.00;;;10.57;;
80411;SDS011;69749;42.684;23.360;2024-03-23T10:11:13;17.67;;;9.20;;
80411;SDS011;69749;42.684;23.360;2024-03-23T10:13:43;34.75;;;9.93;;
80411;SDS011;69749;42.684;23.360;2024-03-23T10:16:11;15.85;;;8.95;;
80411;SDS011;69749;42.684;23.360;2024-03-23T10:18:37;15.65;;;9.20;;
80411;SDS011;69749;42.684;23.360;2024-03-23T10:21:07;16.17;;;8.73;;
80411;SDS011;69749;42.684;23.360;2024-03-23T10:23:40;16.67;;;8.82;;
80411;SDS011;69749;42.684;23.360;2024-03-23T10:28:53;12.35;;;7.68;;
80411;SDS011;69749;42.684;23.360;2024-03-23T10:31:22;67.05;;;11.23;;
80411;SDS011;69749;42.684;23.360;2024-03-23T10:33:48;13.82;;;9.02;;
80411;SDS011;69749;42.684;23.360;2024-03-23T10:36:13;15.60;;;9.05;;
80411;SDS011;69749;42.684;23.360;2024-03-23T10:38:43;23.52;;;9.93;;
80411;SDS011;69749;42.684;23.360;2024-03-23T10:41:10;13.82;;;9.00;;
80411;SDS011;69749;42.684;23.360;2024-03-23T10:43:36;17.67;;;9.32;;
80411;SDS011;69749;42.684;23.360;2024-03-23T10:46:02;12.75;;;8.48;;
80411;SDS011;69749;42.684;23.360;2024-03-23T10:48:29;14.73;;;9.13;;
80411;SDS011;69749;42.684;23.360;2024-03-23T10:50:54;18.45;;;15.45;;
80411;SDS011;69749;42.684;23.360;2024-03-23T10:53:21;14.50;;;9.55;;
80411;SDS011;69749;42.684;23.360;2024-03-23T10:55:50;20.05;;;9.45;;
80411;SDS011;69749;42.684;23.360;2024-03-23T10:58:17;15.68;;;9.13;;
80411;SDS011;69749;42.684;23.360;2024-03-23T11:00:55;11.07;;;8.13;;
80411;SDS011;69749;42.684;23.360;2024-03-23T11:05:56;12.35;;;8.75;;
80411;SDS011;69749;42.684;23.360;2024-03-23T11:08:40;13.63;;;8.75;;
80411;SDS011;69749;42.684;23.360;2024-03-23T11:13:50;12.82;;;7.75;;
80411;SDS011;69749;42.684;23.360;2024-03-23T11:18:46;28.27;;;8.38;;
80411;SDS011;69749;42.684;23.360;2024-03-23T11:21:51;11.77;;;6.22;;
80411;SDS011;69749;42.684;23.360;2024-03-23T11:24:16;11.70;;;6.97;;
80411;SDS011;69749;42.684;23.360;2024-03-23T11:26:41;10.55;;;6.82;;
80411;SDS011;69749;42.684;23.360;2024-03-23T11:29:25;11.05;;;6.28;;
80411;SDS011;69749;42.684;23.360;2024-03-23T11:31:51;8.95;;;6.47;;
80411;SDS011;69749;42.684;23.360;2024-03-23T11:34:18;9.77;;;6.38;;
80411;SDS011;69749;42.684;23.360;2024-03-23T11:36:46;12.00;;;7.13;;
80411;SDS011;69749;42.684;23.360;2024-03-23T11:39:13;12.68;;;6.68;;
80411;SDS011;69749;42.684;23.360;2024-03-23T11:41:50;20.67;;;7.72;;
80411;SDS011;69749;42.684;23.360;2024-03-23T11:44:27;10.27;;;6.07;;
80411;SDS011;69749;42.684;23.360;2024-03-23T11:46:52;8.95;;;5.85;;
80411;SDS011;69749;42.684;23.360;2024-03-23T11:49:21;10.35;;;6.18;;
80411;SDS011;69749;42.684;23.360;2024-03-23T11:51:55;10.80;;;6.95;;
80411;SDS011;69749;42.684;23.360;2024-03-23T11:54:22;12.10;;;6.28;;
80411;SDS011;69749;42.684;23.360;2024-03-23T11:56:58;10.02;;;6.53;;
80411;SDS011;69749;42.684;23.360;2024-03-23T12:02:06;11.48;;;6.15;;
80411;SDS011;69749;42.684;23.360;2024-03-23T12:04:33;8.20;;;5.78;;
80411;SDS011;69749;42.684;23.360;2024-03-23T12:09:39;13.18;;;7.05;;
80411;SDS011;69749;42.684;23.360;2024-03-23T12:12:14;10.63;;;6.47;;
80411;SDS011;69749;42.684;23.360;2024-03-23T12:17:13;10.80;;;6.85;;
80411;SDS011;69749;42.684;23.360;2024-03-23T12:19:40;12.50;;;6.75;;
80411;SDS011;69749;42.684;23.360;2024-03-23T12:22:07;10.45;;;5.90;;
80411;SDS011;69749;42.684;23.360;2024-03-23T12:24:35;14.30;;;5.80;;
80411;SDS011;69749;42.684;23.360;2024-03-23T12:27:02;14.63;;;6.75;;
80411;SDS011;69749;42.684;23.360;2024-03-23T12:29:31;11.98;;;4.93;;
80411;SDS011;69749;42.684;23.360;2024-03-23T12:32:00;11.95;;;5.85;;
80411;SDS011;69749;42.684;23.360;2024-03-23T12:34:27;7.15;;;4.72;;
80411;SDS011;69749;42.684;23.360;2024-03-23T12:36:53;9.02;;;3.90;;
80411;SDS011;69749;42.684;23.360;2024-03-23T12:39:19;7.43;;;4.15;;
80411;SDS011;69749;42.684;23.360;2024-03-23T12:41:46;5.93;;;3.72;;
80411;SDS011;69749;42.684;23.360;2024-03-23T12:44:12;6.93;;;4.15;;
80411;SDS011;69749;42.684;23.360;2024-03-23T12:46:38;7.07;;;4.63;;
80411;SDS011;69749;42.684;23.360;2024-03-23T12:49:04;6.40;;;4.53;;
80411;SDS011;69749;42.684;23.360;2024-03-23T12:51:30;7.45;;;4.30;;
80411;SDS011;69749;42.684;23.360;2024-03-23T12:53:56;5.82;;;3.95;;
80411;SDS011;69749;42.684;23.360;2024-03-23T12:56:21;8.43;;;4.38;;
80411;SDS011;69749;42.684;23.360;2024-03-23T12:58:47;6.82;;;4.55;;
80411;SDS011;69749;42.684;23.360;2024-03-23T13:01:20;6.28;;;4.43;;
80411;SDS011;69749;42.684;23.360;2024-03-23T13:03:46;8.13;;;4.50;;
80411;SDS011;69749;42.684;23.360;2024-03-23T13:06:12;6.25;;;3.92;;
80411;SDS011;69749;42.684;23.360;2024-03-23T13:08:38;5.80;;;3.67;;
80411;SDS011;69749;42.684;23.360;2024-03-23T13:11:05;7.35;;;4.32;;
80411;SDS011;69749;42.684;23.360;2024-03-23T13:13:31;6.85;;;4.28;;
80411;SDS011;69749;42.684;23.360;2024-03-23T13:15:58;10.93;;;4.43;;
80411;SDS011;69749;42.684;23.360;2024-03-23T13:18:23;9.20;;;4.68;;
80411;SDS011;69749;42.684;23.360;2024-03-23T13:20:49;7.65;;;4.72;;
80411;SDS011;69749;42.684;23.360;2024-03-23T13:23:14;9.77;;;4.82;;
80411;SDS011;69749;42.684;23.360;2024-03-23T13:25:40;6.47;;;4.22;;
80411;SDS011;69749;42.684;23.360;2024-03-23T13:28:05;6.50;;;4.22;;
80411;SDS011;69749;42.684;23.360;2024-03-23T13:30:31;8.30;;;4.80;;
80411;SDS011;69749;42.684;23.360;2024-03-23T13:32:56;7.75;;;4.70;;
80411;SDS011;69749;42.684;23.360;2024-03-23T13:35:22;9.10;;;5.20;;
80411;SDS011;69749;42.684;23.360;2024-03-23T13:37:48;7.13;;;4.00;;
80411;SDS011;69749;42.684;23.360;2024-03-23T13:40:13;6.50;;;4.18;;
80411;SDS011;69749;42.684;23.360;2024-03-23T13:42:39;10.15;;;3.85;;
80411;SDS011;69749;42.684;23.360;2024-03-23T13:45:04;8.20;;;4.35;;
80411;SDS011;69749;42.684;23.360;2024-03-23T13:47:30;5.72;;;3.92;;
80411;SDS011;69749;42.684;23.360;2024-03-23T13:49:56;3.95;;;1.80;;
80411;SDS011;69749;42.684;23.360;2024-03-23T13:52:21;2.15;;;1.45;;
80411;SDS011;69749;42.684;23.360;2024-03-23T13:54:50;8.77;;;4.00;;
80411;SDS011;69749;42.684;23.360;2024-03-23T13:57:17;14.88;;;7.75;;
80411;SDS011;69749;42.684;23.360;2024-03-23T13:59:45;4.60;;;2.63;;
80411;SDS011;69749;42.684;23.360;2024-03-23T14:02:11;3.40;;;1.95;;
80411;SDS011;69749;42.684;23.360;2024-03-23T14:04:39;6.18;;;1.95;;
80411;SDS011;69749;42.684;23.360;2024-03-23T14:07:05;3.72;;;1.40;;
80411;SDS011;69749;42.684;23.360;2024-03-23T14:09:32;2.17;;;1.45;;
80411;SDS011;69749;42.684;23.360;2024-03-23T14:11:57;3.15;;;1.83;;
80411;SDS011;69749;42.684;23.360;2024-03-23T14:14:25;1.50;;;1.30;;
80411;SDS011;69749;42.684;23.360;2024-03-23T14:16:50;2.60;;;1.75;;
80411;SDS011;69749;42.684;23.360;2024-03-23T14:19:16;2.05;;;1.35;;
80411;SDS011;69749;42.684;23.360;2024-03-23T14:21:41;2.45;;;1.55;;
80411;SDS011;69749;42.684;23.360;2024-03-23T14:24:07;2.20;;;1.30;;
80411;SDS011;69749;42.684;23.360;2024-03-23T14:26:34;2.67;;;1.50;;
80411;SDS011;69749;42.684;23.360;2024-03-23T14:29:00;4.32;;;1.90;;
80411;SDS011;69749;42.684;23.360;2024-03-23T14:31:26;1.80;;;1.58;;
80411;SDS011;69749;42.684;23.360;2024-03-23T14:33:51;1.73;;;1.38;;
80411;SDS011;69749;42.684;23.360;2024-03-23T14:36:17;2.67;;;1.50;;
80411;SDS011;69749;42.684;23.360;2024-03-23T14:38:42;1.20;;;1.10;;
80411;SDS011;69749;42.684;23.360;2024-03-23T14:41:12;3.22;;;1.23;;
80411;SDS011;69749;42.684;23.360;2024-03-23T14:43:37;1.67;;;1.33;;
80411;SDS011;69749;42.684;23.360;2024-03-23T14:48:39;2.72;;;1.20;;
80411;SDS011;69749;42.684;23.360;2024-03-23T14:51:06;3.75;;;1.65;;
80411;SDS011;69749;42.684;23.360;2024-03-23T14:53:36;3.33;;;1.70;;
80411;SDS011;69749;42.684;23.360;2024-03-23T14:56:03;2.47;;;1.65;;
80411;SDS011;69749;42.684;23.360;2024-03-23T14:58:29;2.60;;;1.67;;
80411;SDS011;69749;42.684;23.360;2024-03-23T15:03:27;2.13;;;1.52;;
80411;SDS011;69749;42.684;23.360;2024-03-23T15:05:56;2.65;;;2.10;;
80411;SDS011;69749;42.684;23.360;2024-03-23T15:08:24;3.95;;;1.80;;
80411;SDS011;69749;42.684;23.360;2024-03-23T15:10:49;2.78;;;1.83;;
80411;SDS011;69749;42.684;23.360;2024-03-23T15:13:16;6.90;;;1.90;;
80411;SDS011;69749;42.684;23.360;2024-03-23T15:15:42;1.75;;;1.40;;
80411;SDS011;69749;42.684;23.360;2024-03-23T15:18:13;4.95;;;1.73;;
80411;SDS011;69749;42.684;23.360;2024-03-23T15:20:40;4.43;;;2.25;;
80411;SDS011;69749;42.684;23.360;2024-03-23T15:23:06;5.95;;;3.05;;
80411;SDS011;69749;42.684;23.360;2024-03-23T15:25:32;4.18;;;2.75;;
80411;SDS011;69749;42.684;23.360;2024-03-23T15:27:58;5.22;;;3.10;;
80411;SDS011;69749;42.684;23.360;2024-03-23T15:30:25;5.28;;;3.00;;
80411;SDS011;69749;42.684;23.360;2024-03-23T15:32:51;25.60;;;3.83;;
80411;SDS011;69749;42.684;23.360;2024-03-23T15:35:17;18.20;;;3.78;;
80411;SDS011;69749;42.684;23.360;2024-03-23T15:37:44;8.80;;;3.33;;
80411;SDS011;69749;42.684;23.360;2024-03-23T15:40:09;5.38;;;2.83;;
80411;SDS011;69749;42.684;23.360;2024-03-23T15:42:36;4.40;;;2.80;;
80411;SDS011;69749;42.684;23.360;2024-03-23T15:45:02;5.53;;;2.70;;